Time;durP1;ratioP1;P1;durP2;ratioP2;P2;SDS_P1;SDS_P2;PMS_P1;PMS_P2;Temp;Humidity;BMP_temperature;BMP_pressure;BME280_temperature;BME280_humidity;BME280_pressure;Samples;Min_cycle;Max_cycle;Signal;HPM_P1;HPM_P2
2021/08/06 04:00:31;;;;;;;2.77;1.90;;;17.40;99.90;;;;;;6082830;23;20494;31
2021/08/06 04:02:59;;;;;;;2.43;1.80;;;17.40;99.90;;;;;;4975052;28;20467;-67
2021/08/06 04:05:25;;;;;;;3.23;1.80;;;17.40;99.90;;;;;;4976982;28;20455;-67
2021/08/06 04:07:52;;;;;;;1.70;1.60;;;17.40;99.90;;;;;;4976435;28;20454;-67
2021/08/06 04:10:21;;;;;;;2.23;1.63;;;17.50;99.90;;;;;;4974699;28;20465;-66
2021/08/06 04:12:48;;;;;;;4.23;2.23;;;17.60;99.90;;;;;;4956849;28;20455;-67
2021/08/06 04:15:16;;;;;;;3.00;2.13;;;17.70;99.90;;;;;;4956956;28;20491;-67
2021/08/06 04:17:43;;;;;;;2.10;2.00;;;17.80;99.90;;;;;;4957551;28;20486;-67
2021/08/06 04:20:12;;;;;;;3.10;2.17;;;17.90;99.90;;;;;;4956794;28;20456;-68
2021/08/06 04:22:39;;;;;;;2.17;2.07;;;17.90;99.90;;;;;;4956574;28;20945;-68
2021/08/06 04:25:07;;;;;;;2.20;2.10;;;17.90;99.90;;;;;;4956806;28;20459;-68
2021/08/06 04:27:34;;;;;;;3.37;1.77;;;18.00;99.90;;;;;;4956836;28;20455;-68
2021/08/06 04:30:01;;;;;;;2.00;1.93;;;18.00;99.90;;;;;;4956880;28;20828;-68
2021/08/06 04:32:28;;;;;;;2.60;1.83;;;18.00;99.90;;;;;;4956893;28;20482;-68
2021/08/06 04:34:55;;;;;;;2.50;2.40;;;18.00;99.90;;;;;;4956578;28;20456;-68
2021/08/06 04:37:23;;;;;;;5.57;1.90;;;18.00;99.90;;;;;;4956404;28;20483;-68
2021/08/06 04:39:50;;;;;;;3.57;2.00;;;18.10;99.90;;;;;;4957421;28;20459;-68
2021/08/06 04:42:17;;;;;;;2.43;2.23;;;18.10;99.90;;;;;;4956618;28;20483;-68
2021/08/06 04:44:44;;;;;;;1.97;1.87;;;18.10;99.90;;;;;;4956316;28;20471;-68
2021/08/06 04:47:11;;;;;;;5.33;2.00;;;18.00;99.90;;;;;;4956245;28;20823;-67
2021/08/06 04:49:39;;;;;;;3.37;2.67;;;18.00;99.90;;;;;;4955824;28;20999;-68
2021/08/06 04:52:06;;;;;;;2.20;2.07;;;17.90;99.90;;;;;;4956452;28;20574;-67
2021/08/06 04:54:34;;;;;;;5.67;1.93;;;17.90;99.90;;;;;;4955857;28;20971;-67
2021/08/06 04:57:01;;;;;;;3.00;2.60;;;17.80;99.90;;;;;;4956270;28;20459;-65
2021/08/06 04:59:28;;;;;;;2.47;2.37;;;17.60;99.90;;;;;;4956098;28;20495;-66
2021/08/06 05:01:54;;;;;;;2.90;2.70;;;17.60;99.90;;;;;;4955781;28;20506;-67
2021/08/06 05:04:21;;;;;;;2.90;2.70;;;17.40;99.90;;;;;;4956042;28;20466;-67
2021/08/06 05:06:48;;;;;;;4.00;2.97;;;17.30;99.90;;;;;;4956029;28;20460;-66
2021/08/06 05:09:14;;;;;;;2.83;2.63;;;17.20;99.90;;;;;;4956137;28;20456;-67
2021/08/06 05:11:42;;;;;;;3.93;3.73;;;17.10;99.90;;;;;;4955575;28;20480;-67
2021/08/06 05:14:09;;;;;;;4.40;3.67;;;17.00;99.90;;;;;;4956108;28;20459;-66
2021/08/06 05:16:36;;;;;;;3.20;3.10;;;17.00;99.90;;;;;;4955489;28;20510;-67
2021/08/06 05:19:02;;;;;;;3.50;3.30;;;16.90;99.90;;;;;;4955579;28;21027;-68
2021/08/06 05:21:29;;;;;;;4.30;3.90;;;16.80;99.90;;;;;;4955721;28;20478;-68
2021/08/06 05:23:56;;;;;;;3.87;3.60;;;16.80;99.90;;;;;;4955516;28;20971;-67
2021/08/06 05:26:23;;;;;;;5.00;3.63;;;16.80;99.90;;;;;;4955821;28;20460;-68
2021/08/06 05:28:51;;;;;;;7.00;3.67;;;16.80;99.90;;;;;;4955676;28;20459;-67
2021/08/06 05:31:19;;;;;;;3.57;3.37;;;16.70;99.90;;;;;;4955608;28;20988;-68
2021/08/06 05:33:46;;;;;;;5.27;3.47;;;16.70;99.90;;;;;;4955611;28;20491;-68
2021/08/06 05:36:12;;;;;;;8.80;3.50;;;16.70;99.90;;;;;;4955816;28;20456;-68
2021/08/06 05:38:39;;;;;;;3.30;3.10;;;16.70;99.90;;;;;;4955650;28;20479;-68
2021/08/06 05:41:06;;;;;;;5.00;3.50;;;16.60;99.90;;;;;;4955586;28;20483;-68
2021/08/06 05:43:32;;;;;;;3.07;2.87;;;16.50;99.90;;;;;;4955827;28;20455;-68
2021/08/06 05:46:00;;;;;;;3.70;3.40;;;16.50;99.90;;;;;;4955438;28;20960;-67
2021/08/06 05:48:27;;;;;;;3.93;3.63;;;16.50;99.90;;;;;;4955575;28;20462;-68
2021/08/06 05:50:54;;;;;;;3.30;3.00;;;16.50;99.90;;;;;;4955522;28;20490;-68
2021/08/06 05:53:21;;;;;;;4.23;3.10;;;16.50;99.90;;;;;;4955368;28;20471;-68
2021/08/06 05:55:48;;;;;;;3.60;3.30;;;16.50;99.90;;;;;;4955303;28;20924;-68
2021/08/06 05:58:14;;;;;;;4.03;3.70;;;16.50;99.90;;;;;;4955874;28;20486;-68
2021/08/06 06:00:41;;;;;;;3.70;3.50;;;16.50;99.90;;;;;;4955310;28;20485;-67
2021/08/06 06:03:09;;;;;;;4.37;3.97;;;16.60;99.90;;;;;;4955581;28;20451;-67
2021/08/06 06:05:36;;;;;;;4.13;3.80;;;16.60;99.90;;;;;;4955400;28;20459;-66
2021/08/06 06:08:02;;;;;;;3.73;3.43;;;16.70;99.90;;;;;;4955702;28;20451;-68
2021/08/06 06:10:29;;;;;;;4.23;3.80;;;16.70;99.90;;;;;;4955813;28;20452;-68
2021/08/06 06:12:57;;;;;;;4.30;3.53;;;16.70;99.90;;;;;;4955815;28;20494;-68
2021/08/06 06:15:23;;;;;;;4.13;3.83;;;16.70;99.90;;;;;;4955414;28;20463;-68
2021/08/06 06:17:50;;;;;;;4.50;4.20;;;16.80;99.90;;;;;;4955570;28;20468;-68
2021/08/06 06:20:19;;;;;;;3.83;3.63;;;16.80;99.90;;;;;;4954883;28;20940;-66
2021/08/06 06:22:46;;;;;;;4.17;3.43;;;16.80;99.90;;;;;;4955571;28;20451;-67
2021/08/06 06:25:13;;;;;;;3.87;3.67;;;16.90;99.90;;;;;;4955896;28;20495;-67
2021/08/06 06:27:52;;;;;;;3.70;3.50;;;17.00;99.90;;;;;;4956032;28;20912;-67
2021/08/06 06:30:20;;;;;;;3.37;3.17;;;17.20;99.90;;;;;;4958873;28;20439;-66
2021/08/06 06:32:47;;;;;;;3.30;3.10;;;17.40;99.90;;;;;;4958465;28;20912;-68
2021/08/06 06:35:14;;;;;;;2.93;2.73;;;17.50;99.90;;;;;;4958818;28;20467;-67
2021/08/06 06:37:42;;;;;;;2.80;2.60;;;17.60;99.90;;;;;;4958679;28;20447;-67
2021/08/06 06:40:10;;;;;;;2.50;2.40;;;17.60;99.90;;;;;;4958672;28;20466;-67
2021/08/06 06:42:36;;;;;;;2.77;2.67;;;17.70;99.90;;;;;;4958650;28;20440;-67
2021/08/06 06:45:04;;;;;;;2.90;2.70;;;17.60;99.90;;;;;;4958582;28;20458;-68
2021/08/06 06:47:37;;;;;;;3.40;2.70;;;17.60;99.90;;;;;;4958627;28;20833;-67
2021/08/06 06:50:05;;;;;;;2.83;2.50;;;17.60;99.90;;;;;;4958674;28;20638;-67
2021/08/06 06:52:31;;;;;;;2.73;2.53;;;17.60;99.90;;;;;;4958216;28;20975;-67
2021/08/06 06:54:59;;;;;;;3.70;2.60;;;17.70;99.90;;;;;;4958514;28;20446;-67
2021/08/06 06:57:26;;;;;;;2.40;2.30;;;17.80;99.90;;;;;;4958462;28;20458;-67
2021/08/06 06:59:54;;;;;;;3.00;2.60;;;18.00;99.90;;;;;;4958281;28;20463;-67
2021/08/06 07:02:21;;;;;;;2.33;2.23;;;18.00;99.90;;;;;;4957857;28;20491;-67
2021/08/06 07:04:48;;;;;;;2.50;2.30;;;18.20;99.90;;;;;;4958325;28;20440;-67
2021/08/06 07:07:14;;;;;;;2.63;2.40;;;18.50;99.90;;;;;;4958052;28;20467;-67
2021/08/06 07:09:42;;;;;;;2.40;2.20;;;18.80;99.90;;;;;;4958139;28;20921;-67
2021/08/06 07:12:10;;;;;;;1.90;1.80;;;19.30;99.90;;;;;;4958478;28;20484;-67
2021/08/06 07:14:36;;;;;;;2.27;2.17;;;19.70;99.90;;;;;;4958558;28;20448;-67
2021/08/06 07:17:03;;;;;;;2.20;2.00;;;20.10;99.90;;;;;;4957601;28;20456;-67
2021/08/06 07:19:30;;;;;;;3.30;1.90;;;20.40;99.90;;;;;;4958085;28;20879;-67
2021/08/06 07:21:57;;;;;;;2.50;1.70;;;20.40;99.90;;;;;;4957861;28;20480;-67
2021/08/06 07:24:23;;;;;;;3.00;2.57;;;20.20;99.90;;;;;;4958277;28;20466;-67
2021/08/06 07:26:50;;;;;;;3.83;2.33;;;20.00;99.90;;;;;;4957658;28;20933;-67
2021/08/06 07:29:18;;;;;;;2.27;2.00;;;19.80;99.90;;;;;;4957806;28;20456;-67
2021/08/06 07:31:45;;;;;;;2.13;2.03;;;19.60;99.90;;;;;;4957362;28;20841;-67
2021/08/06 07:34:11;;;;;;;1.70;1.70;;;19.60;99.90;;;;;;4957743;28;20459;-67
2021/08/06 07:36:38;;;;;;;2.07;1.97;;;19.50;99.90;;;;;;4957676;28;20491;-67
2021/08/06 07:39:05;;;;;;;4.90;1.97;;;19.40;99.90;;;;;;4957085;28;20490;-68
2021/08/06 07:41:31;;;;;;;1.70;1.60;;;19.30;99.90;;;;;;4957587;28;20487;-67
2021/08/06 07:43:58;;;;;;;1.87;1.77;;;19.20;99.90;;;;;;4957705;28;20464;-68
2021/08/06 07:46:26;;;;;;;1.93;1.83;;;19.10;99.90;;;;;;4957691;28;20459;-67
2021/08/06 07:48:53;;;;;;;2.30;1.80;;;18.90;99.90;;;;;;4957407;28;20462;-66
2021/08/06 07:51:20;;;;;;;2.00;1.80;;;18.80;99.90;;;;;;4957029;28;20518;-66
2021/08/06 07:53:46;;;;;;;2.03;1.93;;;18.70;99.90;;;;;;4957405;28;20466;-66
2021/08/06 07:56:15;;;;;;;2.10;2.00;;;18.60;99.90;;;;;;4957358;28;20674;-66
2021/08/06 07:58:42;;;;;;;1.90;1.80;;;18.40;99.90;;;;;;4957147;28;20491;-66
2021/08/06 08:01:08;;;;;;;3.23;2.40;;;18.30;99.90;;;;;;4956779;28;20984;-66
2021/08/06 08:03:36;;;;;;;4.53;2.47;;;18.30;99.90;;;;;;4957106;28;20463;-66
2021/08/06 08:06:03;;;;;;;2.33;2.23;;;18.20;99.90;;;;;;4957070;28;20514;-66
2021/08/06 08:08:31;;;;;;;2.77;2.23;;;18.30;99.90;;;;;;4956789;28;20463;-66
2021/08/06 08:10:58;;;;;;;2.57;2.37;;;18.30;99.90;;;;;;4957074;28;20482;-66
2021/08/06 08:13:24;;;;;;;2.13;2.03;;;18.20;99.90;;;;;;4957007;28;20456;-65
2021/08/06 08:15:51;;;;;;;2.50;2.40;;;18.20;99.90;;;;;;4957114;28;20455;-68
2021/08/06 08:18:18;;;;;;;3.60;3.33;;;18.20;99.90;;;;;;4956579;28;20455;-68
2021/08/06 08:20:47;;;;;;;4.47;2.40;;;18.30;99.90;;;;;;4956762;28;20509;-66
2021/08/06 08:23:15;;;;;;;2.93;2.33;;;18.40;99.90;;;;;;4956898;28;20471;-66
2021/08/06 08:25:41;;;;;;;3.20;2.90;;;18.70;99.90;;;;;;4956645;28;20456;-67
2021/08/06 08:28:08;;;;;;;2.30;2.10;;;19.00;99.90;;;;;;4956543;28;20942;-66
2021/08/06 08:30:35;;;;;;;2.53;1.90;;;19.30;99.90;;;;;;4956701;28;20485;-66
2021/08/06 08:33:02;;;;;;;2.23;2.13;;;19.30;99.90;;;;;;4956694;28;20447;-68
2021/08/06 08:35:29;;;;;;;2.00;1.90;;;19.50;99.90;;;;;;4956409;28;20456;-67
2021/08/06 08:37:57;;;;;;;3.30;2.37;;;19.50;99.90;;;;;;4956566;28;20455;-68
2021/08/06 08:40:23;;;;;;;2.43;1.87;;;19.80;99.90;;;;;;4956303;28;20487;-68
2021/08/06 08:42:51;;;;;;;3.50;1.70;;;19.90;99.90;;;;;;4956429;28;20530;-66
2021/08/06 08:45:18;;;;;;;1.93;1.80;;;19.90;99.90;;;;;;4956577;28;20455;-68
2021/08/06 08:47:49;;;;;;;1.80;1.70;;;20.20;99.90;;;;;;4956264;28;20455;-66
2021/08/06 08:50:16;;;;;;;1.80;1.20;;;20.60;99.90;;;;;;4955490;28;20452;-66
2021/08/06 08:52:43;;;;;;;2.10;1.57;;;20.90;99.90;;;;;;4956521;28;20452;-68
2021/08/06 08:55:13;;;;;;;1.83;1.30;;;21.20;99.90;;;;;;4956372;28;20450;-68
2021/08/06 08:57:40;;;;;;;1.67;0.93;;;21.50;99.90;;;;;;4955904;28;20444;-68
2021/08/06 09:00:09;;;;;;;1.67;1.10;;;21.80;99.90;;;;;;4956028;28;20483;-66
2021/08/06 09:02:38;;;;;;;1.80;1.00;;;22.20;99.90;;;;;;4955494;28;20534;-66
2021/08/06 09:05:13;;;;;;;5.10;1.13;;;22.40;99.90;;;;;;4956168;28;20825;-66
2021/08/06 09:07:40;;;;;;;0.90;0.90;;;22.40;99.90;;;;;;4955794;28;20447;-66
2021/08/06 09:10:11;;;;;;;1.10;1.07;;;22.40;99.90;;;;;;4956551;28;20455;-67
2021/08/06 09:12:53;;;;;;;1.17;0.97;;;22.20;99.90;;;;;;4957489;28;20451;-68
2021/08/06 09:15:42;;;;;;;1.57;1.47;;;22.10;99.90;;;;;;4956212;28;20447;-67
2021/08/06 09:18:34;;;;;;;2.83;1.20;;;22.20;99.90;;;;;;4956221;28;20516;-68
2021/08/06 09:21:04;;;;;;;2.77;1.27;;;22.40;99.90;;;;;;4956093;28;20479;-68
2021/08/06 09:23:40;;;;;;;1.10;1.00;;;22.60;99.90;;;;;;4956441;28;20455;-68
2021/08/06 09:26:07;;;;;;;2.70;0.80;;;23.00;99.90;;;;;;4955815;28;20455;-68
2021/08/06 09:28:34;;;;;;;0.80;0.80;;;23.30;99.90;;;;;;4955878;28;20456;-68
2021/08/06 09:31:15;;;;;;;1.00;1.00;;;23.90;99.90;;;;;;4955402;28;21019;-68
2021/08/06 09:33:42;;;;;;;1.20;1.10;;;24.20;99.90;;;;;;4955941;28;20471;-68
2021/08/06 09:36:12;;;;;;;1.17;1.03;;;24.40;99.90;;;;;;4955756;28;20443;-67
2021/08/06 09:38:39;;;;;;;2.93;1.20;;;24.30;99.90;;;;;;4955772;28;20459;-67
2021/08/06 09:41:06;;;;;;;1.67;1.40;;;24.20;99.90;;;;;;4955610;28;20482;-67
2021/08/06 09:43:32;;;;;;;1.27;1.27;;;24.10;99.90;;;;;;4955602;28;20456;-67
2021/08/06 09:45:59;;;;;;;3.03;1.10;;;23.90;99.90;;;;;;4955985;28;20451;-67
2021/08/06 09:48:28;;;;;;;0.90;0.90;;;23.80;99.90;;;;;;4955831;28;20451;-67
2021/08/06 09:50:56;;;;;;;0.90;0.90;;;23.60;99.90;;;;;;4955625;28;20476;-67
2021/08/06 09:53:27;;;;;;;2.40;1.00;;;23.40;99.90;;;;;;4955842;28;20464;-67
2021/08/06 09:55:53;;;;;;;6.43;1.63;;;23.20;99.90;;;;;;4955830;28;20456;-68
2021/08/06 09:58:22;;;;;;;1.20;1.20;;;23.00;99.90;;;;;;4956104;28;20959;-68
2021/08/06 10:00:50;;;;;;;1.07;1.07;;;22.90;99.90;;;;;;4955248;28;20638;-67
2021/08/06 10:03:30;;;;;;;1.03;1.03;;;23.00;99.90;;;;;;4959006;28;20459;-67
2021/08/06 10:06:10;;;;;;;1.90;1.30;;;23.70;99.90;;;;;;4959329;28;20440;-67
2021/08/06 10:08:37;;;;;;;1.40;0.80;;;25.10;99.90;;;;;;4959588;28;20462;-68
2021/08/06 10:11:04;;;;;;;1.43;1.00;;;26.70;99.90;;;;;;4959243;28;20475;-67
2021/08/06 10:13:32;;;;;;;0.93;0.93;;;28.20;99.90;;;;;;4959454;28;20467;-68
2021/08/06 10:15:59;;;;;;;1.90;1.30;;;29.40;99.90;;;;;;4959007;28;20929;-68
2021/08/06 10:18:28;;;;;;;0.77;0.77;;;30.40;99.90;;;;;;4959089;28;20451;-68
2021/08/06 10:20:54;;;;;;;4.33;1.10;;;31.20;99.90;;;;;;4958720;28;20852;-68
2021/08/06 10:23:21;;;;;;;1.17;1.10;;;32.10;92.90;;;;;;4958936;28;20461;-68
2021/08/06 10:25:48;;;;;;;1.20;1.10;;;32.30;91.70;;;;;;4958923;28;20463;-68
2021/08/06 10:28:15;;;;;;;2.13;1.00;;;32.60;88.70;;;;;;4958533;28;20519;-68
2021/08/06 10:30:42;;;;;;;1.10;1.10;;;32.20;88.70;;;;;;4958329;28;20839;-67
2021/08/06 10:33:19;;;;;;;1.27;1.00;;;32.50;82.70;;;;;;4958544;28;20871;-68
2021/08/06 10:35:52;;;;;;;1.63;1.00;;;31.90;81.90;;;;;;4958723;28;20479;-68
2021/08/06 10:38:34;;;;;;;1.30;1.10;;;31.00;85.60;;;;;;4958776;28;20490;-68
2021/08/06 10:41:03;;;;;;;0.83;0.80;;;29.90;89.50;;;;;;4958241;28;20483;-68
2021/08/06 10:43:57;;;;;;;1.10;0.90;;;29.10;90.30;;;;;;4958631;28;20530;-68
2021/08/06 10:46:24;;;;;;;3.53;1.00;;;28.30;91.80;;;;;;4958603;28;20439;-67
2021/08/06 10:48:52;;;;;;;2.53;1.10;;;27.70;94.70;;;;;;4958373;28;20477;-68
2021/08/06 10:51:32;;;;;;;2.40;1.13;;;27.40;96.60;;;;;;4958499;28;20885;-68
2021/08/06 10:54:23;;;;;;;4.43;1.47;;;27.00;97.00;;;;;;4958467;28;20446;-68
2021/08/06 10:56:50;;;;;;;1.20;0.90;;;26.80;96.60;;;;;;4958328;28;20440;-68
2021/08/06 10:59:23;;;;;;;1.17;1.03;;;26.70;96.90;;;;;;4958369;28;20439;-67
2021/08/06 11:01:49;;;;;;;2.47;1.40;;;26.30;96.60;;;;;;4958119;28;20519;-66
2021/08/06 11:04:45;;;;;;;1.10;1.10;;;25.90;97.40;;;;;;4958014;28;20455;-66
2021/08/06 11:07:35;;;;;;;2.10;1.53;;;25.50;98.10;;;;;;4958260;28;20455;-68
2021/08/06 11:10:02;;;;;;;1.00;1.00;;;25.00;97.50;;;;;;4958414;28;20439;-68
2021/08/06 11:12:33;;;;;;;0.83;0.83;;;24.50;98.60;;;;;;4958383;28;20479;-68
2021/08/06 11:15:02;;;;;;;3.80;1.67;;;24.10;99.90;;;;;;4957334;28;20456;-68
2021/08/06 11:17:41;;;;;;;0.90;0.90;;;23.90;99.90;;;;;;4958618;28;20455;-68
2021/08/06 11:20:12;;;;;;;1.33;0.93;;;23.90;99.90;;;;;;4958271;28;20550;-68
2021/08/06 11:22:41;;;;;;;1.10;1.00;;;23.70;99.90;;;;;;4958077;28;20439;-68
2021/08/06 11:25:15;;;;;;;1.13;0.90;;;23.80;99.90;;;;;;4958037;28;20459;-68
2021/08/06 11:27:43;;;;;;;1.70;1.33;;;23.80;99.90;;;;;;4958027;28;20535;-68
2021/08/06 11:30:13;;;;;;;1.77;0.90;;;23.80;99.90;;;;;;4958147;28;20459;-68
2021/08/06 11:32:47;;;;;;;2.00;0.90;;;23.60;99.90;;;;;;4958241;28;20462;-68
2021/08/06 11:35:16;;;;;;;1.00;1.00;;;23.30;99.90;;;;;;4958423;28;20502;-68
2021/08/06 11:37:49;;;;;;;1.00;1.00;;;23.20;99.90;;;;;;4958359;28;20491;-68
2021/08/06 11:40:17;;;;;;;1.17;1.00;;;23.10;99.90;;;;;;4957540;28;20468;-67
2021/08/06 11:42:44;;;;;;;1.20;1.10;;;23.00;99.90;;;;;;4957979;28;20542;-68
2021/08/06 11:45:13;;;;;;;0.90;0.90;;;22.90;99.90;;;;;;4957584;28;20459;-68
2021/08/06 11:47:42;;;;;;;2.43;1.10;;;23.00;99.90;;;;;;4957478;28;20436;-68
2021/08/06 11:50:11;;;;;;;1.17;1.07;;;23.20;99.90;;;;;;4957284;28;20845;-68
2021/08/06 11:52:40;;;;;;;1.13;1.00;;;23.60;99.90;;;;;;4957318;28;20487;-68
2021/08/06 11:55:10;;;;;;;0.80;0.80;;;23.90;99.90;;;;;;4957449;28;20443;-68
2021/08/06 11:57:45;;;;;;;1.33;1.23;;;24.10;99.90;;;;;;4957332;28;20460;-68
2021/08/06 12:00:17;;;;;;;2.27;1.20;;;24.30;99.90;;;;;;4957156;28;20825;-68
2021/08/06 12:02:43;;;;;;;1.03;0.93;;;24.30;99.90;;;;;;4956938;28;20439;-68
2021/08/06 12:05:23;;;;;;;1.33;1.00;;;24.30;99.90;;;;;;4957127;28;20452;-68
2021/08/06 12:07:50;;;;;;;1.00;1.00;;;24.70;99.90;;;;;;4956755;28;20944;-68
2021/08/06 12:10:23;;;;;;;1.00;0.90;;;24.90;99.90;;;;;;4956853;28;20447;-67
2021/08/06 12:12:50;;;;;;;1.07;0.97;;;25.00;99.90;;;;;;4957096;28;20498;-68
2021/08/06 12:15:24;;;;;;;1.27;1.00;;;25.30;99.90;;;;;;4956912;28;20452;-68
2021/08/06 12:18:09;;;;;;;2.70;1.23;;;25.90;99.90;;;;;;4956771;28;20905;-68
2021/08/06 12:20:37;;;;;;;1.90;1.00;;;26.40;99.90;;;;;;4956778;28;20487;-67
2021/08/06 12:23:05;;;;;;;1.50;1.30;;;26.80;99.90;;;;;;4957013;28;20460;-68
2021/08/06 12:25:33;;;;;;;1.40;1.10;;;27.00;99.90;;;;;;4956675;28;20467;-68
2021/08/06 12:28:00;;;;;;;0.70;0.70;;;27.20;99.90;;;;;;4956540;28;20463;-66
2021/08/06 12:30:29;;;;;;;0.80;0.73;;;27.50;99.90;;;;;;4956383;28;20812;-66
2021/08/06 12:32:56;;;;;;;0.70;0.70;;;27.50;99.90;;;;;;4956454;28;20455;-66
2021/08/06 12:35:24;;;;;;;0.83;0.83;;;27.40;99.90;;;;;;4956158;28;20953;-66
2021/08/06 12:37:52;;;;;;;3.27;1.10;;;27.60;99.90;;;;;;4956484;28;20466;-66
2021/08/06 12:40:19;;;;;;;1.60;1.00;;;27.90;97.30;;;;;;4956242;28;20479;-66
2021/08/06 12:42:47;;;;;;;1.57;0.93;;;27.90;97.10;;;;;;4956271;28;20945;-65
2021/08/06 12:45:20;;;;;;;1.30;0.97;;;27.40;94.50;;;;;;4956360;28;20948;-65
2021/08/06 12:47:48;;;;;;;1.03;0.87;;;27.10;94.90;;;;;;4956367;28;20455;-66
2021/08/06 12:50:17;;;;;;;1.33;0.80;;;27.00;93.70;;;;;;4956364;28;20452;-66
2021/08/06 12:52:45;;;;;;;2.03;1.50;;;26.90;92.50;;;;;;4956289;28;20868;-66
2021/08/06 12:55:14;;;;;;;1.47;1.03;;;26.90;93.20;;;;;;4956301;28;20459;-65
2021/08/06 12:57:48;;;;;;;1.20;0.87;;;26.80;94.50;;;;;;4956431;28;20452;-65
2021/08/06 13:00:23;;;;;;;1.33;1.00;;;26.80;93.20;;;;;;4955802;28;20495;-64
2021/08/06 13:03:05;;;;;;;2.10;1.33;;;26.80;94.30;;;;;;4956568;28;20443;-65
2021/08/06 13:05:33;;;;;;;1.17;1.00;;;26.90;94.60;;;;;;4955969;28;20443;-65
2021/08/06 13:08:16;;;;;;;1.53;1.07;;;27.10;92.00;;;;;;4956076;28;20491;-65
2021/08/06 13:10:43;;;;;;;0.90;0.90;;;27.20;91.90;;;;;;4956126;28;20475;-64
2021/08/06 13:13:12;;;;;;;1.10;1.00;;;27.30;92.90;;;;;;4955940;28;20483;-65
2021/08/06 13:15:39;;;;;;;1.90;1.10;;;27.50;92.50;;;;;;4955922;28;20470;-65
2021/08/06 13:18:06;;;;;;;0.70;0.70;;;27.50;91.90;;;;;;4955895;28;20455;-65
2021/08/06 13:20:36;;;;;;;1.50;0.80;;;27.10;90.10;;;;;;4955724;28;20484;-64
2021/08/06 13:23:03;;;;;;;2.00;1.03;;;26.90;91.00;;;;;;4955743;28;20436;-64
2021/08/06 13:25:30;;;;;;;0.80;0.80;;;27.00;90.40;;;;;;4955789;28;20466;-64
2021/08/06 13:27:56;;;;;;;2.40;1.67;;;27.00;89.70;;;;;;4955822;28;20459;-65
2021/08/06 13:30:25;;;;;;;1.10;1.00;;;27.00;89.90;;;;;;4955436;28;20944;-64
2021/08/06 13:32:52;;;;;;;1.27;0.90;;;26.60;90.50;;;;;;4955674;28;20536;-65
2021/08/06 13:35:19;;;;;;;1.57;0.90;;;26.50;88.30;;;;;;4955577;28;20459;-65
2021/08/06 13:37:46;;;;;;;2.30;0.80;;;26.50;92.20;;;;;;4955981;28;20455;-66
2021/08/06 13:40:13;;;;;;;0.80;0.80;;;26.80;90.50;;;;;;4956244;28;20475;-68
2021/08/06 13:42:40;;;;;;;1.53;1.10;;;27.00;91.20;;;;;;4955970;28;21015;-66
2021/08/06 13:45:07;;;;;;;1.20;0.87;;;27.20;90.50;;;;;;4956822;28;20463;-66
2021/08/06 13:47:35;;;;;;;0.70;0.70;;;27.00;89.80;;;;;;4956970;28;20944;-67
2021/08/06 13:50:02;;;;;;;1.20;0.60;;;26.60;88.30;;;;;;4956375;28;20455;-66
2021/08/06 13:52:29;;;;;;;2.00;0.97;;;26.30;89.70;;;;;;4956803;28;20479;-67
2021/08/06 13:54:56;;;;;;;0.77;0.77;;;26.40;91.80;;;;;;4957352;28;20973;-67
2021/08/06 13:57:22;;;;;;;0.97;0.77;;;26.60;92.40;;;;;;4956209;28;20883;-66
2021/08/06 13:59:49;;;;;;;0.97;0.97;;;26.80;91.40;;;;;;4956407;28;20456;-68
2021/08/06 14:02:17;;;;;;;0.70;0.70;;;26.70;90.70;;;;;;4955877;28;20483;-68
2021/08/06 14:04:45;;;;;;;1.90;1.00;;;26.50;90.90;;;;;;4956355;28;20501;-68
2021/08/06 14:07:16;;;;;;;2.73;1.07;;;26.20;91.40;;;;;;4956380;28;20440;-67
2021/08/06 14:09:43;;;;;;;0.80;0.80;;;25.90;93.00;;;;;;4956437;28;20812;-68
2021/08/06 14:12:09;;;;;;;1.73;0.73;;;25.80;93.50;;;;;;4956185;28;20471;-68
2021/08/06 14:14:37;;;;;;;1.00;0.90;;;25.70;95.20;;;;;;4956679;28;20866;-68
2021/08/06 14:17:04;;;;;;;0.80;0.80;;;25.70;94.50;;;;;;4955944;28;20460;-68
2021/08/06 14:19:31;;;;;;;2.27;0.83;;;25.70;94.70;;;;;;4956591;28;20464;-66
2021/08/06 14:21:59;;;;;;;1.07;1.00;;;25.80;95.40;;;;;;4955476;28;20821;-68
2021/08/06 14:24:26;;;;;;;0.90;0.90;;;25.90;94.80;;;;;;4955966;28;20945;-68
2021/08/06 14:26:53;;;;;;;1.40;0.93;;;26.20;95.50;;;;;;4956045;28;20459;-68
2021/08/06 14:29:21;;;;;;;2.17;1.20;;;26.40;93.50;;;;;;4955593;28;20466;-67
2021/08/06 14:31:49;;;;;;;1.00;0.90;;;26.50;93.10;;;;;;4956588;28;20475;-67
2021/08/06 14:34:16;;;;;;;1.07;1.00;;;26.70;93.10;;;;;;4955271;28;20921;-67
2021/08/06 14:36:44;;;;;;;4.93;4.20;;;27.00;94.30;;;;;;4956547;28;20835;-67
2021/08/06 14:39:12;;;;;;;9.00;6.47;;;27.10;93.40;;;;;;4955461;28;20455;-67
2021/08/06 14:41:40;;;;;;;4.23;3.73;;;26.90;93.10;;;;;;4955409;28;20484;-66
2021/08/06 14:44:08;;;;;;;4.67;2.90;;;26.70;92.70;;;;;;4955836;28;20460;-67
2021/08/06 14:46:35;;;;;;;7.73;4.57;;;26.30;93.90;;;;;;4956192;28;20460;-67
2021/08/06 14:49:02;;;;;;;2.27;2.07;;;26.10;95.00;;;;;;4957319;28;20455;-65
2021/08/06 14:51:29;;;;;;;2.03;1.77;;;25.80;94.20;;;;;;4958460;28;20992;-66
2021/08/06 14:53:56;;;;;;;1.20;1.10;;;25.70;95.10;;;;;;4958681;28;20447;-66
2021/08/06 14:56:25;;;;;;;1.90;1.67;;;25.60;95.00;;;;;;4958769;28;20491;-66
2021/08/06 14:58:52;;;;;;;2.57;1.37;;;25.40;95.40;;;;;;4958554;28;20455;-66
2021/08/06 15:01:19;;;;;;;1.53;1.43;;;25.40;96.10;;;;;;4958422;28;20483;-66
2021/08/06 15:03:45;;;;;;;4.83;3.37;;;25.20;96.40;;;;;;4958376;28;20545;-65
2021/08/06 15:06:13;;;;;;;1.27;1.20;;;25.00;96.90;;;;;;4958442;28;20491;-66
2021/08/06 15:08:40;;;;;;;3.63;2.50;;;25.00;96.90;;;;;;4958173;28;20462;-66
2021/08/06 15:11:07;;;;;;;3.73;1.40;;;24.90;97.80;;;;;;4958523;28;20518;-66
2021/08/06 15:13:35;;;;;;;2.23;1.40;;;24.70;97.30;;;;;;4958430;28;20460;-66
2021/08/06 15:16:01;;;;;;;1.80;1.70;;;24.50;97.30;;;;;;4958169;28;20828;-66
2021/08/06 15:18:28;;;;;;;1.90;1.80;;;24.50;98.20;;;;;;4957961;28;20448;-66
2021/08/06 15:20:55;;;;;;;1.40;1.30;;;24.40;98.90;;;;;;4958334;28;20483;-67
2021/08/06 15:23:22;;;;;;;1.40;1.30;;;24.30;99.30;;;;;;4958581;28;20462;-68
2021/08/06 15:25:48;;;;;;;2.50;1.47;;;24.40;99.90;;;;;;4959006;28;20455;-66
2021/08/06 15:28:17;;;;;;;1.90;1.13;;;24.80;99.90;;;;;;4958296;28;20456;-66
2021/08/06 15:30:45;;;;;;;1.43;1.23;;;25.00;99.90;;;;;;4958270;28;20471;-66
2021/08/06 15:33:12;;;;;;;1.80;1.00;;;25.40;99.90;;;;;;4958181;28;20455;-65
2021/08/06 15:35:39;;;;;;;2.53;1.13;;;25.60;98.80;;;;;;4958088;28;20802;-66
2021/08/06 15:38:06;;;;;;;1.20;1.10;;;25.90;99.60;;;;;;4957872;28;20447;-66
2021/08/06 15:40:32;;;;;;;1.27;1.00;;;26.10;97.70;;;;;;4957578;28;20856;-66
2021/08/06 15:42:59;;;;;;;2.50;1.67;;;26.10;98.50;;;;;;4958030;28;20459;-66
2021/08/06 15:45:26;;;;;;;1.53;1.20;;;26.00;97.70;;;;;;4957439;28;20949;-66
2021/08/06 15:47:54;;;;;;;0.90;0.90;;;25.90;96.50;;;;;;4957684;28;20462;-66
2021/08/06 15:50:21;;;;;;;2.90;1.30;;;26.10;97.20;;;;;;4957710;28;20466;-66
2021/08/06 15:52:51;;;;;;;1.83;1.20;;;26.20;96.90;;;;;;4962900;28;20447;-66
2021/08/06 15:55:20;;;;;;;1.37;1.00;;;26.30;96.50;;;;;;4970338;28;21008;-65
2021/08/06 15:57:49;;;;;;;2.83;1.53;;;26.20;95.30;;;;;;4968918;28;20465;-66
2021/08/06 16:00:16;;;;;;;2.20;1.00;;;26.30;95.60;;;;;;4968570;28;20455;-66
2021/08/06 16:02:43;;;;;;;2.00;1.10;;;26.30;94.80;;;;;;4968178;28;20464;-67
2021/08/06 16:05:12;;;;;;;2.13;1.40;;;26.10;94.20;;;;;;4968132;28;20455;-67
2021/08/06 16:07:38;;;;;;;1.20;1.07;;;26.10;93.80;;;;;;4959292;28;20460;-67
2021/08/06 16:10:06;;;;;;;1.10;1.10;;;25.70;93.80;;;;;;4959126;28;20464;-65
2021/08/06 16:12:33;;;;;;;1.43;1.13;;;25.70;92.90;;;;;;4957744;28;20480;-65
2021/08/06 16:15:00;;;;;;;2.17;1.13;;;25.60;93.00;;;;;;4957545;28;20494;-65
2021/08/06 16:17:26;;;;;;;1.10;1.00;;;25.50;93.10;;;;;;4957868;28;20459;-65
2021/08/06 16:19:53;;;;;;;1.00;0.70;;;25.40;94.40;;;;;;4957024;28;20470;-64
2021/08/06 16:22:21;;;;;;;1.73;1.30;;;25.30;93.90;;;;;;4956843;28;20486;-67
2021/08/06 16:24:48;;;;;;;1.57;1.03;;;25.20;93.80;;;;;;4956510;28;20466;-66
2021/08/06 16:27:15;;;;;;;2.00;1.20;;;25.10;93.40;;;;;;4956781;28;20463;-66
2021/08/06 16:29:42;;;;;;;1.17;1.10;;;24.90;93.70;;;;;;4956866;28;20463;-67
2021/08/06 16:32:08;;;;;;;0.90;0.90;;;24.70;94.10;;;;;;4956982;28;20476;-66
2021/08/06 16:34:35;;;;;;;2.93;1.30;;;24.50;94.10;;;;;;4956681;28;20463;-67
2021/08/06 16:37:02;;;;;;;1.83;1.50;;;24.50;95.10;;;;;;4956689;28;20466;-68
2021/08/06 16:39:30;;;;;;;1.10;1.10;;;24.40;95.80;;;;;;4956414;28;20459;-67
2021/08/06 16:41:57;;;;;;;0.90;0.90;;;24.30;95.90;;;;;;4956439;28;20486;-68
2021/08/06 16:44:24;;;;;;;1.20;1.10;;;24.10;94.70;;;;;;4956236;28;20934;-66
2021/08/06 16:46:50;;;;;;;1.17;0.90;;;24.00;95.50;;;;;;4956763;28;20821;-65
2021/08/06 16:49:17;;;;;;;1.33;1.20;;;23.90;96.00;;;;;;4956688;28;20468;-65
2021/08/06 16:51:45;;;;;;;1.57;1.13;;;23.90;96.00;;;;;;4956647;28;20980;-69
2021/08/06 16:54:15;;;;;;;1.13;1.03;;;23.70;96.00;;;;;;4956463;28;20452;-66